Terminal Aerodrome Forecast
Issued by NWS

Home | Current Version | Previous Version | Text Only | Print | Product List | Glossary On
Versions: 1 2 3 4 5 6 7 8 9 10 11 12
000
FTUS44 KJAN 281747
TAFHKS
TAF
KHKS 281747Z 2818/2918 25008KT P6SM SCT150
     FM282300 20007KT P6SM VCTS SCT035CB BKN050
      TEMPO 2900/2902 34010G30KT 4SM TSRA OVC035CB
     FM290600 20005KT P6SM VCTS OVC040CB PROB30 2908/2914 TSRA
      OVC025CB=

USA.gov is the U.S. government's official web portal to all federal, state and local government web resources and services.